Time,TemperatureF,DewpointF,PressureIn,WindDirection,WindDirectionDegrees,WindSpeedMPH,WindSpeedGustMPH,Humidity,HourlyPrecipIn,Conditions,Clouds,dailyrainin,SolarRadiationWatts/m^2,SoftwareType,DateUTC
2013-01-06 13:30:00,41.0,9.0,-100.00,East,101,4.0,9.0,26,0.00,,,0.00,497.000000,,2013-01-06 20:30:00,
2013-01-06 14:12:00,41.0,9.0,-100.00,East,101,4.0,9.0,26,0.00,,,0.00,497.000000,,2013-01-06 21:12:00,
2013-01-06 14:22:00,41.0,9.0,-100.00,East,101,4.0,9.0,26,0.00,,,0.00,497.000000,,2013-01-06 21:22:00,
2013-01-06 14:30:00,39.0,9.0,-100.00,ESE,117,5.0,11.0,28,0.00,,,0.00,365.000000,,2013-01-06 21:30:00,
2013-01-06 14:53:00,39.0,9.0,-100.00,ESE,117,5.0,11.0,28,0.00,,,0.00,365.000000,,2013-01-06 21:53:00,
2013-01-06 15:02:00,39.0,9.0,-100.00,ESE,117,5.0,11.0,28,0.00,,,0.00,365.000000,,2013-01-06 22:02:00,
2013-01-06 15:12:00,39.0,9.0,-100.00,ESE,117,5.0,11.0,28,0.00,,,0.00,365.000000,,2013-01-06 22:12:00,
2013-01-06 15:22:00,39.0,9.0,-100.00,ESE,117,5.0,11.0,28,0.00,,,0.00,365.000000,,2013-01-06 22:22:00,
2013-01-06 15:30:00,38.0,9.0,-100.00,ESE,121,4.0,9.0,30,0.00,,,0.00,294.000000,,2013-01-06 22:30:00,
2013-01-06 15:52:00,38.0,9.0,-100.00,ESE,121,4.0,9.0,30,0.00,,,0.00,294.000000,,2013-01-06 22:52:00,
2013-01-06 16:02:00,38.0,9.0,-100.00,ESE,121,4.0,9.0,30,0.00,,,0.00,294.000000,,2013-01-06 23:02:00,
2013-01-06 16:12:00,38.0,9.0,-100.00,ESE,121,4.0,9.0,30,0.00,,,0.00,294.000000,,2013-01-06 23:12:00,
2013-01-06 16:22:00,38.0,9.0,-100.00,ESE,121,4.0,9.0,30,0.00,,,0.00,294.000000,,2013-01-06 23:22:00,
2013-01-06 16:30:00,34.0,9.0,-100.00,ESE,120,4.0,9.0,35,0.00,,,0.00,127.000000,,2013-01-06 23:30:00,
2013-01-06 16:53:00,34.0,9.0,-100.00,ESE,120,4.0,9.0,35,0.00,,,0.00,127.000000,,2013-01-06 23:53:00,
2013-01-06 17:02:00,34.0,9.0,-100.00,ESE,120,4.0,9.0,35,0.00,,,0.00,127.000000,,2013-01-07 00:02:00,
2013-01-06 17:12:00,34.0,9.0,-100.00,ESE,120,4.0,9.0,35,0.00,,,0.00,127.000000,,2013-01-07 00:12:00,
2013-01-06 17:22:00,34.0,9.0,-100.00,ESE,120,4.0,9.0,35,0.00,,,0.00,127.000000,,2013-01-07 00:22:00,
2013-01-06 17:30:00,32.0,9.0,-100.00,East,91,4.0,9.0,38,0.00,,,0.00,13.000000,,2013-01-07 00:30:00,
2013-01-06 17:53:00,32.0,9.0,-100.00,East,91,4.0,9.0,38,0.00,,,0.00,13.000000,,2013-01-07 00:53:00,
2013-01-06 18:02:00,32.0,9.0,-100.00,East,91,4.0,9.0,38,0.00,,,0.00,13.000000,,2013-01-07 01:02:00,
2013-01-06 18:12:00,32.0,9.0,-100.00,East,91,4.0,9.0,38,0.00,,,0.00,13.000000,,2013-01-07 01:12:00,
2013-01-06 18:22:00,32.0,9.0,-100.00,East,91,4.0,9.0,38,0.00,,,0.00,13.000000,,2013-01-07 01:22:00,
2013-01-06 18:30:00,30.0,9.0,-100.00,East,98,3.0,7.0,41,0.00,,,-99.99,0.000000,,2013-01-07 01:30:00,
2013-01-06 18:53:00,30.0,9.0,-100.00,East,98,3.0,7.0,41,0.00,,,-99.99,0.000000,,2013-01-07 01:53:00,
2013-01-06 19:02:00,30.0,9.0,-100.00,East,98,3.0,7.0,41,0.00,,,-99.99,0.000000,,2013-01-07 02:02:00,
2013-01-06 19:12:00,30.0,9.0,-100.00,East,98,3.0,7.0,41,0.00,,,-99.99,0.000000,,2013-01-07 02:12:00,
2013-01-06 19:22:00,30.0,9.0,-100.00,East,98,3.0,7.0,41,0.00,,,-99.99,0.000000,,2013-01-07 02:22:00,
2013-01-06 19:30:00,32.0,7.0,-100.00,ESE,108,6.0,14.0,35,0.00,,,0.00,0.000000,,2013-01-07 02:30:00,
2013-01-06 19:53:00,32.0,7.0,-100.00,ESE,108,6.0,14.0,35,0.00,,,0.00,0.000000,,2013-01-07 02:53:00,
2013-01-06 20:02:00,32.0,7.0,-100.00,ESE,108,6.0,14.0,35,0.00,,,0.00,0.000000,,2013-01-07 03:02:00,
2013-01-06 20:12:00,32.0,7.0,-100.00,ESE,108,6.0,14.0,35,0.00,,,0.00,0.000000,,2013-01-07 03:12:00,
2013-01-06 20:22:00,32.0,7.0,-100.00,ESE,108,6.0,14.0,35,0.00,,,0.00,0.000000,,2013-01-07 03:22:00,
2013-01-06 20:30:00,30.0,8.0,-100.00,East,96,4.0,9.0,39,-99.99,,,0.00,0.000000,,2013-01-07 03:30:00,
2013-01-06 20:53:00,30.0,8.0,-100.00,East,96,4.0,9.0,39,-99.99,,,0.00,0.000000,,2013-01-07 03:53:00,
2013-01-06 21:02:00,30.0,8.0,-100.00,East,96,4.0,9.0,39,-99.99,,,0.00,0.000000,,2013-01-07 04:02:00,
2013-01-06 21:12:00,30.0,8.0,-100.00,East,96,4.0,9.0,39,-99.99,,,0.00,0.000000,,2013-01-07 04:12:00,
2013-01-06 21:22:00,30.0,8.0,-100.00,East,96,4.0,9.0,39,-99.99,,,0.00,0.000000,,2013-01-07 04:22:00,
2013-01-06 21:30:00,28.0,6.0,-100.00,East,98,3.0,9.0,39,-99.99,,,0.00,0.000000,,2013-01-07 04:30:00,
2013-01-06 21:52:00,28.0,6.0,-100.00,East,98,3.0,9.0,39,-99.99,,,0.00,0.000000,,2013-01-07 04:52:00,
2013-01-06 22:02:00,28.0,6.0,-100.00,East,98,3.0,9.0,39,-99.99,,,0.00,0.000000,,2013-01-07 05:02:00,
2013-01-06 22:12:00,28.0,6.0,-100.00,East,98,3.0,9.0,39,-99.99,,,0.00,0.000000,,2013-01-07 05:12:00,
2013-01-06 22:22:00,28.0,6.0,-100.00,East,98,3.0,9.0,39,-99.99,,,0.00,0.000000,,2013-01-07 05:22:00,
2013-01-06 22:30:00,29.0,5.0,-100.00,East,88,6.0,13.0,36,0.00,,,0.00,0.000000,,2013-01-07 05:30:00,
2013-01-06 22:53:00,29.0,5.0,-100.00,East,88,6.0,13.0,36,0.00,,,0.00,0.000000,,2013-01-07 05:53:00,
2013-01-06 23:02:00,29.0,5.0,-100.00,East,88,6.0,13.0,36,0.00,,,0.00,0.000000,,2013-01-07 06:02:00,
2013-01-06 23:12:00,29.0,5.0,-100.00,East,88,6.0,13.0,36,0.00,,,0.00,0.000000,,2013-01-07 06:12:00,
2013-01-06 23:22:00,29.0,5.0,-100.00,East,88,6.0,13.0,36,0.00,,,0.00,0.000000,,2013-01-07 06:22:00,
2013-01-06 23:30:00,29.0,5.0,-100.00,East,92,5.0,11.0,36,0.00,,,0.00,0.000000,,2013-01-07 06:30:00,
2013-01-06 23:52:00,29.0,5.0,-100.00,East,92,5.0,11.0,36,0.00,,,0.00,0.000000,,2013-01-07 06:52:00,